หน้าหลัก
METAR-TAF:

METAR-TAF

ท่าอากาศยาน :

ฮากาตญา, กวม, สหรัฐอเมริกา

ละติจูด: 13-29N, ลองจิจูด: 144-48E, ความสูง: 91 ม.

การสังเกตสภาพอากาศปัจจุบัน

รายงานได้ทำขึ้นเมื่อ 41 นาทีที่แล้ว ณ เวลา 06:54 UTC
ลม 11 นอตจากตะวันออก/ตะวันออกเฉียงเหนือ
อุณหภูมิ 31°C
ความชื้น 66%
ความกดอากาศ 1012 hPa
ทัศนวิสัย: 16.1 กม.
ท้องฟ้าแจ่มใส

METAR: PGUM 300654Z 07011KT 10SM CLR 31/24 A2988 RMK AO2 SLP110 T03060239

เวลา: 17:35 (07:35 UTC)

การพยากรณ์

รายงานได้ทำขึ้นเมื่อ 1 ชั่วโมงและ 53 นาทีที่แล้ว ณ เวลา 05:42 UTC
การพยากรณ์มีผลตั้งแต่วันที่ 30 ณ เวลา 06 UTC จนถึงวันที่ 31 ณ เวลา 12 UTC
ลม 11 นอตจากตะวันออก
ทัศนวิสัย: 10 กม.
มีเมฆน้อยที่ความสูง 1800 ฟุต
มีเมฆกระจายเป็นบางส่วนที่ความสูง 2500 ฟุต
การโปรยปรายในบริเวณใกล้เคียง
ชั่วคราว
ตั้งแต่วันที่ 30 ณ เวลา 09 UTC จนถึงวันที่ 30 ณ เวลา 11 UTC
ทัศนวิสัย: 8.0 กม.
มีเมฆเป็นส่วนมากเว้นเป็นระยะที่ความสูง 1800 ฟุต
มีเมฆมาก มืดครึ้มที่ความสูง 3000 ฟุต
ฝนโปรยปราย,

TAF: PGUM 300542Z 3006/3112 08011KT P6SM VCSH FEW018 SCT025 TEMPO 3009/3011 5SM SHRA BKN018 OVC030

สังเกตการณ์สภาพอากาศและพยากรณ์อากาศของสนามบินมากกว่า 4000 แห่ง (รายงาน METAR และ TAF).

สถานีที่ดูได้จะแสดงไว้ด้วยจุดสีเหลืองและสีแดงบนแผนที่.

เลื่อนเมาส์ไปเหนือจุดเพื่อดูชื่อสถานี.

แล้วคลิกเพื่อดูสังเกตการณ์และการพยากรณ์สภาพอากาศ.

ในการเปลี่ยนแผนที่: คลิกที่ปุ่มสีเขียวที่มีกากบาทสีดำเพื่อซูมเข้า; ที่ปุ่มสีเขียวที่มีขีดเพื่อซูมออก; หรือที่ลูกศรสีเขียวเพื่อไปยังแผนที่ที่อยู่ติดกัน.


METAR-TAF: